sensor_id;sensor_type;location;lat;lon;timestamp;pressure;altitude;pressure_sealevel;temperature;humidity
37170;BME280;23062;13.952;100.608;2023-08-30T00:03:11;1007.00;;;32.31;64.26
37170;BME280;23062;13.952;100.608;2023-08-30T00:07:24;1007.01;;;32.33;64.66
37170;BME280;23062;13.952;100.608;2023-08-30T00:11:41;1007.07;;;32.29;64.79
37170;BME280;23062;13.952;100.608;2023-08-30T00:15:54;1007.12;;;32.29;64.75
37170;BME280;23062;13.952;100.608;2023-08-30T00:20:10;1007.25;;;32.28;65.08
37170;BME280;23062;13.952;100.608;2023-08-30T00:24:26;1007.31;;;32.34;65.07
37170;BME280;23062;13.952;100.608;2023-08-30T00:28:40;1007.42;;;32.37;65.70
37170;BME280;23062;13.952;100.608;2023-08-30T00:32:54;1007.48;;;32.32;65.81
37170;BME280;23062;13.952;100.608;2023-08-30T00:37:10;1007.47;;;32.34;66.08
37170;BME280;23062;13.952;100.608;2023-08-30T00:41:25;1007.49;;;32.25;66.20
37170;BME280;23062;13.952;100.608;2023-08-30T00:45:41;1007.46;;;32.15;66.61
37170;BME280;23062;13.952;100.608;2023-08-30T00:49:54;1007.43;;;32.09;67.01
37170;BME280;23062;13.952;100.608;2023-08-30T00:54:10;1007.49;;;32.17;67.12
37170;BME280;23062;13.952;100.608;2023-08-30T00:58:25;1007.55;;;32.13;67.57
37170;BME280;23062;13.952;100.608;2023-08-30T01:02:40;1007.61;;;32.14;67.79
37170;BME280;23062;13.952;100.608;2023-08-30T01:06:55;1007.68;;;32.08;68.01
37170;BME280;23062;13.952;100.608;2023-08-30T01:15:27;1007.65;;;32.17;67.08
37170;BME280;23062;13.952;100.608;2023-08-30T01:20:00;1007.66;;;32.11;67.18
37170;BME280;23062;13.952;100.608;2023-08-30T01:24:01;1007.73;;;32.14;66.54
37170;BME280;23062;13.952;100.608;2023-08-30T01:28:10;1007.81;;;32.20;67.00
37170;BME280;23062;13.952;100.608;2023-08-30T01:32:25;1007.88;;;32.24;66.88
37170;BME280;23062;13.952;100.608;2023-08-30T01:36:40;1007.88;;;32.25;67.18
37170;BME280;23062;13.952;100.608;2023-08-30T01:40:56;1007.84;;;32.30;67.35
37170;BME280;23062;13.952;100.608;2023-08-30T01:45:10;1007.95;;;32.37;67.20
37170;BME280;23062;13.952;100.608;2023-08-30T01:49:25;1007.97;;;32.33;66.53
37170;BME280;23062;13.952;100.608;2023-08-30T01:53:40;1007.97;;;32.32;65.99
37170;BME280;23062;13.952;100.608;2023-08-30T01:57:54;1007.90;;;32.25;65.29
37170;BME280;23062;13.952;100.608;2023-08-30T02:02:10;1007.97;;;32.33;65.19
37170;BME280;23062;13.952;100.608;2023-08-30T02:06:35;1008.02;;;32.41;64.37
37170;BME280;23062;13.952;100.608;2023-08-30T02:10:41;1008.06;;;32.44;64.03
37170;BME280;23062;13.952;100.608;2023-08-30T02:14:55;1008.08;;;32.43;63.54
37170;BME280;23062;13.952;100.608;2023-08-30T02:19:11;1008.05;;;32.45;63.13
37170;BME280;23062;13.952;100.608;2023-08-30T02:23:27;1008.03;;;32.45;62.67
37170;BME280;23062;13.952;100.608;2023-08-30T02:27:40;1008.09;;;32.51;62.27
37170;BME280;23062;13.952;100.608;2023-08-30T02:31:55;1008.12;;;32.56;61.43
37170;BME280;23062;13.952;100.608;2023-08-30T02:36:10;1008.07;;;32.58;60.30
37170;BME280;23062;13.952;100.608;2023-08-30T02:40:25;1008.06;;;32.57;60.13
37170;BME280;23062;13.952;100.608;2023-08-30T02:44:41;1008.04;;;32.63;59.83
37170;BME280;23062;13.952;100.608;2023-08-30T02:48:54;1008.02;;;32.62;59.03
37170;BME280;23062;13.952;100.608;2023-08-30T02:53:10;1008.03;;;32.65;58.33
37170;BME280;23062;13.952;100.608;2023-08-30T02:57:25;1008.07;;;32.65;58.28
37170;BME280;23062;13.952;100.608;2023-08-30T03:01:40;1008.10;;;32.69;58.14
37170;BME280;23062;13.952;100.608;2023-08-30T03:05:54;1008.10;;;32.71;57.94
37170;BME280;23062;13.952;100.608;2023-08-30T03:10:10;1008.05;;;32.77;57.61
37170;BME280;23062;13.952;100.608;2023-08-30T03:14:25;1008.04;;;32.80;57.40
37170;BME280;23062;13.952;100.608;2023-08-30T03:18:40;1007.97;;;32.82;57.10
37170;BME280;23062;13.952;100.608;2023-08-30T03:22:56;1007.97;;;32.84;56.97
37170;BME280;23062;13.952;100.608;2023-08-30T03:27:10;1007.94;;;32.85;56.40
37170;BME280;23062;13.952;100.608;2023-08-30T03:31:25;1007.91;;;32.89;56.46
37170;BME280;23062;13.952;100.608;2023-08-30T03:35:40;1007.93;;;32.89;56.48
37170;BME280;23062;13.952;100.608;2023-08-30T03:39:54;1007.88;;;32.93;56.24
37170;BME280;23062;13.952;100.608;2023-08-30T03:44:10;1007.87;;;32.95;56.28
37170;BME280;23062;13.952;100.608;2023-08-30T03:48:25;1007.80;;;32.97;56.00
37170;BME280;23062;13.952;100.608;2023-08-30T03:52:39;1007.86;;;32.99;55.57
37170;BME280;23062;13.952;100.608;2023-08-30T03:56:55;1007.84;;;32.99;55.42
37170;BME280;23062;13.952;100.608;2023-08-30T04:01:11;1007.88;;;33.03;55.24
37170;BME280;23062;13.952;100.608;2023-08-30T04:05:26;1007.88;;;33.01;55.18
37170;BME280;23062;13.952;100.608;2023-08-30T04:09:40;1007.84;;;33.03;55.14
37170;BME280;23062;13.952;100.608;2023-08-30T04:13:55;1007.76;;;33.03;55.51
37170;BME280;23062;13.952;100.608;2023-08-30T04:18:11;1007.80;;;33.06;55.57
37170;BME280;23062;13.952;100.608;2023-08-30T04:22:25;1007.73;;;33.11;55.26
37170;BME280;23062;13.952;100.608;2023-08-30T04:26:41;1007.70;;;33.17;55.50
37170;BME280;23062;13.952;100.608;2023-08-30T04:30:58;1007.65;;;33.18;55.62
37170;BME280;23062;13.952;100.608;2023-08-30T04:35:10;1007.56;;;33.18;55.33
37170;BME280;23062;13.952;100.608;2023-08-30T04:39:26;1007.51;;;33.13;55.66
37170;BME280;23062;13.952;100.608;2023-08-30T04:43:39;1007.43;;;33.15;55.44
37170;BME280;23062;13.952;100.608;2023-08-30T04:47:54;1007.32;;;33.17;55.29
37170;BME280;23062;13.952;100.608;2023-08-30T04:52:10;1007.27;;;33.20;55.49
37170;BME280;23062;13.952;100.608;2023-08-30T04:56:25;1007.15;;;33.25;55.47
37170;BME280;23062;13.952;100.608;2023-08-30T05:00:40;1007.07;;;33.23;55.21
37170;BME280;23062;13.952;100.608;2023-08-30T05:04:54;1006.96;;;33.27;55.00
37170;BME280;23062;13.952;100.608;2023-08-30T05:09:10;1006.89;;;33.28;54.91
37170;BME280;23062;13.952;100.608;2023-08-30T05:13:25;1006.77;;;33.30;54.96
37170;BME280;23062;13.952;100.608;2023-08-30T05:17:40;1006.76;;;33.29;55.10
37170;BME280;23062;13.952;100.608;2023-08-30T05:21:54;1006.75;;;33.38;55.10
37170;BME280;23062;13.952;100.608;2023-08-30T05:26:10;1006.67;;;33.39;54.70
37170;BME280;23062;13.952;100.608;2023-08-30T05:30:25;1006.61;;;33.35;54.95
37170;BME280;23062;13.952;100.608;2023-08-30T05:34:41;1006.55;;;33.42;54.97
37170;BME280;23062;13.952;100.608;2023-08-30T05:38:55;1006.47;;;33.44;55.10
37170;BME280;23062;13.952;100.608;2023-08-30T05:43:09;1006.39;;;33.49;54.42
37170;BME280;23062;13.952;100.608;2023-08-30T05:47:26;1006.36;;;33.48;54.85
37170;BME280;23062;13.952;100.608;2023-08-30T05:51:40;1006.33;;;33.47;55.08
37170;BME280;23062;13.952;100.608;2023-08-30T05:55:55;1006.25;;;33.47;55.04
37170;BME280;23062;13.952;100.608;2023-08-30T06:00:10;1006.19;;;33.52;54.83
37170;BME280;23062;13.952;100.608;2023-08-30T06:04:41;1006.07;;;33.55;54.63
37170;BME280;23062;13.952;100.608;2023-08-30T06:08:39;1005.95;;;33.52;54.41
37170;BME280;23062;13.952;100.608;2023-08-30T06:12:54;1005.82;;;33.57;54.18
37170;BME280;23062;13.952;100.608;2023-08-30T06:17:10;1005.75;;;33.60;54.12
37170;BME280;23062;13.952;100.608;2023-08-30T06:21:25;1005.68;;;33.61;54.03
37170;BME280;23062;13.952;100.608;2023-08-30T06:25:41;1005.56;;;33.64;53.91
37170;BME280;23062;13.952;100.608;2023-08-30T06:29:54;1005.46;;;33.59;54.06
37170;BME280;23062;13.952;100.608;2023-08-30T06:34:11;1005.38;;;33.64;53.92
37170;BME280;23062;13.952;100.608;2023-08-30T06:38:25;1005.28;;;33.64;53.89
37170;BME280;23062;13.952;100.608;2023-08-30T06:42:40;1005.17;;;33.66;53.67
37170;BME280;23062;13.952;100.608;2023-08-30T06:46:55;1005.02;;;33.67;53.83
37170;BME280;23062;13.952;100.608;2023-08-30T06:51:10;1004.91;;;33.69;53.46
37170;BME280;23062;13.952;100.608;2023-08-30T06:55:25;1004.85;;;33.71;53.63
37170;BME280;23062;13.952;100.608;2023-08-30T06:59:40;1004.80;;;33.71;53.67
37170;BME280;23062;13.952;100.608;2023-08-30T07:03:55;1004.59;;;33.75;52.64
37170;BME280;23062;13.952;100.608;2023-08-30T07:08:13;1004.52;;;33.77;52.79
37170;BME280;23062;13.952;100.608;2023-08-30T07:12:25;1004.42;;;33.82;52.57
37170;BME280;23062;13.952;100.608;2023-08-30T07:16:40;1004.39;;;33.90;52.37
37170;BME280;23062;13.952;100.608;2023-08-30T07:20:55;1004.42;;;33.90;52.84
37170;BME280;23062;13.952;100.608;2023-08-30T07:25:10;1004.33;;;33.88;52.89
37170;BME280;23062;13.952;100.608;2023-08-30T07:29:25;1004.34;;;33.83;53.20
37170;BME280;23062;13.952;100.608;2023-08-30T07:33:40;1004.35;;;33.88;53.31
37170;BME280;23062;13.952;100.608;2023-08-30T07:37:55;1004.43;;;33.86;53.41
37170;BME280;23062;13.952;100.608;2023-08-30T07:42:10;1004.39;;;33.88;53.34
37170;BME280;23062;13.952;100.608;2023-08-30T07:46:25;1004.39;;;33.88;53.15
37170;BME280;23062;13.952;100.608;2023-08-30T07:50:40;1004.37;;;33.87;53.42
37170;BME280;23062;13.952;100.608;2023-08-30T07:54:55;1004.35;;;33.91;53.39
37170;BME280;23062;13.952;100.608;2023-08-30T07:59:10;1004.38;;;33.90;53.58
37170;BME280;23062;13.952;100.608;2023-08-30T08:03:25;1004.33;;;33.89;53.72
37170;BME280;23062;13.952;100.608;2023-08-30T08:07:41;1004.35;;;33.89;53.82
37170;BME280;23062;13.952;100.608;2023-08-30T08:11:55;1004.36;;;33.88;54.17
37170;BME280;23062;13.952;100.608;2023-08-30T08:16:10;1004.25;;;33.83;54.33
37170;BME280;23062;13.952;100.608;2023-08-30T08:20:26;1004.18;;;33.84;54.14
37170;BME280;23062;13.952;100.608;2023-08-30T08:24:40;1004.12;;;33.83;54.05
37170;BME280;23062;13.952;100.608;2023-08-30T08:28:56;1004.22;;;33.82;53.94
37170;BME280;23062;13.952;100.608;2023-08-30T08:33:10;1004.25;;;33.82;54.01
37170;BME280;23062;13.952;100.608;2023-08-30T08:37:26;1004.05;;;33.83;54.06
37170;BME280;23062;13.952;100.608;2023-08-30T08:41:41;1003.96;;;33.79;54.45
37170;BME280;23062;13.952;100.608;2023-08-30T08:46:01;1004.06;;;33.84;54.66
37170;BME280;23062;13.952;100.608;2023-08-30T08:50:11;1004.21;;;33.77;55.63
37170;BME280;23062;13.952;100.608;2023-08-30T08:54:27;1004.32;;;33.76;56.38
37170;BME280;23062;13.952;100.608;2023-08-30T08:58:41;1004.17;;;33.71;56.63
37170;BME280;23062;13.952;100.608;2023-08-30T09:02:55;1004.25;;;33.70;56.68
37170;BME280;23062;13.952;100.608;2023-08-30T09:07:10;1004.39;;;33.73;56.67
37170;BME280;23062;13.952;100.608;2023-08-30T09:11:26;1004.34;;;33.66;56.94
37170;BME280;23062;13.952;100.608;2023-08-30T09:15:40;1004.29;;;33.63;56.99
37170;BME280;23062;13.952;100.608;2023-08-30T09:20:04;1004.26;;;33.52;56.68
37170;BME280;23062;13.952;100.608;2023-08-30T09:24:10;1004.24;;;33.43;56.36
37170;BME280;23062;13.952;100.608;2023-08-30T09:28:26;1004.36;;;33.45;56.38
37170;BME280;23062;13.952;100.608;2023-08-30T09:32:44;1004.40;;;33.41;56.54
37170;BME280;23062;13.952;100.608;2023-08-30T09:36:56;1004.19;;;33.35;56.75
37170;BME280;23062;13.952;100.608;2023-08-30T09:41:11;1004.08;;;33.33;57.10
37170;BME280;23062;13.952;100.608;2023-08-30T09:45:26;1004.10;;;33.31;57.27
37170;BME280;23062;13.952;100.608;2023-08-30T09:49:45;1004.22;;;33.29;57.35
37170;BME280;23062;13.952;100.608;2023-08-30T09:53:57;1004.42;;;33.27;57.66
37170;BME280;23062;13.952;100.608;2023-08-30T09:58:11;1004.43;;;33.23;58.02
37170;BME280;23062;13.952;100.608;2023-08-30T10:02:26;1004.34;;;33.29;58.07
37170;BME280;23062;13.952;100.608;2023-08-30T10:06:40;1004.36;;;33.25;58.63
37170;BME280;23062;13.952;100.608;2023-08-30T10:10:55;1004.35;;;33.26;58.74
37170;BME280;23062;13.952;100.608;2023-08-30T10:15:10;1004.28;;;33.22;59.25
37170;BME280;23062;13.952;100.608;2023-08-30T10:19:26;1004.19;;;33.30;59.21
37170;BME280;23062;13.952;100.608;2023-08-30T10:23:42;1004.18;;;33.28;59.44
37170;BME280;23062;13.952;100.608;2023-08-30T10:27:56;1004.18;;;33.30;59.50
37170;BME280;23062;13.952;100.608;2023-08-30T10:32:10;1004.16;;;33.28;59.66
37170;BME280;23062;13.952;100.608;2023-08-30T10:36:25;1004.32;;;33.32;59.57
37170;BME280;23062;13.952;100.608;2023-08-30T10:40:47;1004.52;;;33.30;59.76
37170;BME280;23062;13.952;100.608;2023-08-30T10:45:05;1004.60;;;33.31;59.83
37170;BME280;23062;13.952;100.608;2023-08-30T10:49:12;1004.66;;;33.33;60.06
37170;BME280;23062;13.952;100.608;2023-08-30T10:53:31;1004.86;;;33.29;60.36
37170;BME280;23062;13.952;100.608;2023-08-30T10:57:44;1004.93;;;33.30;60.58
37170;BME280;23062;13.952;100.608;2023-08-30T11:01:55;1004.88;;;33.29;60.85
37170;BME280;23062;13.952;100.608;2023-08-30T11:06:13;1004.85;;;33.39;60.71
37170;BME280;23062;13.952;100.608;2023-08-30T11:10:25;1004.86;;;33.40;60.59
37170;BME280;23062;13.952;100.608;2023-08-30T11:14:42;1004.85;;;33.42;60.71
37170;BME280;23062;13.952;100.608;2023-08-30T11:18:55;1004.96;;;33.41;60.67
37170;BME280;23062;13.952;100.608;2023-08-30T11:23:11;1004.96;;;33.36;60.89
37170;BME280;23062;13.952;100.608;2023-08-30T11:27:25;1004.98;;;33.32;60.89
37170;BME280;23062;13.952;100.608;2023-08-30T11:31:41;1005.00;;;33.36;61.27
37170;BME280;23062;13.952;100.608;2023-08-30T11:35:55;1005.06;;;33.35;61.56
37170;BME280;23062;13.952;100.608;2023-08-30T11:40:11;1005.07;;;33.36;61.65
37170;BME280;23062;13.952;100.608;2023-08-30T11:44:28;1005.08;;;33.34;61.80
37170;BME280;23062;13.952;100.608;2023-08-30T11:48:42;1005.12;;;33.39;61.80
37170;BME280;23062;13.952;100.608;2023-08-30T11:52:57;1005.20;;;33.34;61.73
37170;BME280;23062;13.952;100.608;2023-08-30T11:57:12;1005.27;;;33.35;61.45
37170;BME280;23062;13.952;100.608;2023-08-30T12:01:28;1005.32;;;33.28;61.60
37170;BME280;23062;13.952;100.608;2023-08-30T12:05:46;1005.42;;;33.29;61.62
37170;BME280;23062;13.952;100.608;2023-08-30T12:10:08;1005.59;;;33.30;61.79
37170;BME280;23062;13.952;100.608;2023-08-30T12:14:12;1005.67;;;33.31;61.46
37170;BME280;23062;13.952;100.608;2023-08-30T12:18:28;1005.65;;;33.30;61.44
37170;BME280;23062;13.952;100.608;2023-08-30T12:22:42;1005.67;;;33.33;61.55
37170;BME280;23062;13.952;100.608;2023-08-30T12:26:57;1005.62;;;33.25;62.34
37170;BME280;23062;13.952;100.608;2023-08-30T12:31:12;1005.61;;;33.29;62.82
37170;BME280;23062;13.952;100.608;2023-08-30T12:35:27;1005.70;;;33.29;63.18
37170;BME280;23062;13.952;100.608;2023-08-30T12:39:41;1005.72;;;33.29;63.59
37170;BME280;23062;13.952;100.608;2023-08-30T12:43:57;1005.79;;;33.24;63.74
37170;BME280;23062;13.952;100.608;2023-08-30T12:48:14;1005.89;;;33.29;63.91
37170;BME280;23062;13.952;100.608;2023-08-30T12:52:28;1005.92;;;33.27;63.91
37170;BME280;23062;13.952;100.608;2023-08-30T12:56:45;1006.04;;;33.25;64.28
37170;BME280;23062;13.952;100.608;2023-08-30T13:00:56;1006.12;;;33.23;63.70
37170;BME280;23062;13.952;100.608;2023-08-30T13:05:13;1006.23;;;33.24;63.51
37170;BME280;23062;13.952;100.608;2023-08-30T13:09:30;1006.28;;;33.29;63.47
37170;BME280;23062;13.952;100.608;2023-08-30T13:13:43;1006.38;;;33.32;63.50
37170;BME280;23062;13.952;100.608;2023-08-30T13:17:57;1006.50;;;33.32;63.24
37170;BME280;23062;13.952;100.608;2023-08-30T13:22:13;1006.60;;;33.32;63.65
37170;BME280;23062;13.952;100.608;2023-08-30T13:25:45;1006.34;;;32.26;56.41
37170;BME280;23062;13.952;100.608;2023-08-30T13:29:57;1006.41;;;28.64;54.25
37170;BME280;23062;13.952;100.608;2023-08-30T13:34:12;1006.49;;;27.03;50.28
37170;BME280;23062;13.952;100.608;2023-08-30T13:38:26;1006.56;;;25.97;46.92
37170;BME280;23062;13.952;100.608;2023-08-30T13:42:40;1006.58;;;25.51;43.79
37170;BME280;23062;13.952;100.608;2023-08-30T13:46:57;1006.66;;;25.05;41.84
37170;BME280;23062;13.952;100.608;2023-08-30T13:51:10;1006.81;;;25.83;43.99
37170;BME280;23062;13.952;100.608;2023-08-30T13:55:26;1006.97;;;26.29;46.01
37170;BME280;23062;13.952;100.608;2023-08-30T13:59:41;1007.08;;;26.45;46.74
37170;BME280;23062;13.952;100.608;2023-08-30T14:03:56;1007.25;;;26.54;47.34
37170;BME280;23062;13.952;100.608;2023-08-30T14:08:10;1007.34;;;26.40;47.51
37170;BME280;23062;13.952;100.608;2023-08-30T14:12:26;1007.45;;;26.33;48.38
37170;BME280;23062;13.952;100.608;2023-08-30T14:16:42;1007.56;;;26.34;48.01
37170;BME280;23062;13.952;100.608;2023-08-30T14:20:58;1007.64;;;26.27;47.66
37170;BME280;23062;13.952;100.608;2023-08-30T14:25:11;1007.66;;;26.09;47.23
37170;BME280;23062;13.952;100.608;2023-08-30T14:29:27;1007.66;;;25.92;47.42
37170;BME280;23062;13.952;100.608;2023-08-30T14:33:42;1007.72;;;26.01;47.36
37170;BME280;23062;13.952;100.608;2023-08-30T14:37:57;1007.73;;;25.95;46.91
37170;BME280;23062;13.952;100.608;2023-08-30T14:42:13;1007.81;;;25.84;46.87
37170;BME280;23062;13.952;100.608;2023-08-30T14:46:26;1007.90;;;25.78;46.69
37170;BME280;23062;13.952;100.608;2023-08-30T14:50:41;1007.93;;;26.03;45.61
37170;BME280;23062;13.952;100.608;2023-08-30T14:54:55;1008.04;;;26.04;44.41
37170;BME280;23062;13.952;100.608;2023-08-30T14:59:11;1008.07;;;25.95;43.67
37170;BME280;23062;13.952;100.608;2023-08-30T15:03:26;1008.13;;;25.92;43.30
37170;BME280;23062;13.952;100.608;2023-08-30T15:07:40;1008.11;;;25.88;42.98
37170;BME280;23062;13.952;100.608;2023-08-30T15:11:55;1008.21;;;25.85;42.64
37170;BME280;23062;13.952;100.608;2023-08-30T15:16:09;1008.27;;;26.05;41.78
37170;BME280;23062;13.952;100.608;2023-08-30T15:20:25;1008.28;;;26.10;40.84
37170;BME280;23062;13.952;100.608;2023-08-30T15:24:40;1008.31;;;26.15;40.01
37170;BME280;23062;13.952;100.608;2023-08-30T15:28:55;1008.34;;;26.06;39.65
37170;BME280;23062;13.952;100.608;2023-08-30T15:33:10;1008.34;;;26.12;39.18
37170;BME280;23062;13.952;100.608;2023-08-30T15:37:25;1008.37;;;26.04;38.99
37170;BME280;23062;13.952;100.608;2023-08-30T15:41:40;1008.39;;;25.90;38.99
37170;BME280;23062;13.952;100.608;2023-08-30T15:45:55;1008.40;;;25.95;38.72
37170;BME280;23062;13.952;100.608;2023-08-30T15:50:10;1008.34;;;26.24;38.13
37170;BME280;23062;13.952;100.608;2023-08-30T15:54:25;1008.34;;;26.95;37.42
37170;BME280;23062;13.952;100.608;2023-08-30T15:58:39;1008.36;;;27.03;37.38
37170;BME280;23062;13.952;100.608;2023-08-30T16:02:55;1008.36;;;27.07;37.60
37170;BME280;23062;13.952;100.608;2023-08-30T16:07:10;1008.35;;;27.15;37.59
37170;BME280;23062;13.952;100.608;2023-08-30T16:11:24;1008.33;;;27.11;37.80
37170;BME280;23062;13.952;100.608;2023-08-30T16:15:40;1008.33;;;27.14;37.79
37170;BME280;23062;13.952;100.608;2023-08-30T16:19:55;1008.30;;;27.18;37.52
37170;BME280;23062;13.952;100.608;2023-08-30T16:24:09;1008.22;;;27.15;37.44
37170;BME280;23062;13.952;100.608;2023-08-30T16:28:24;1008.16;;;27.04;37.60
37170;BME280;23062;13.952;100.608;2023-08-30T16:32:41;1008.04;;;27.13;37.49
37170;BME280;23062;13.952;100.608;2023-08-30T16:36:55;1008.01;;;27.13;37.54
37170;BME280;23062;13.952;100.608;2023-08-30T16:41:09;1007.92;;;27.06;37.63
37170;BME280;23062;13.952;100.608;2023-08-30T16:45:24;1007.94;;;27.07;37.50
37170;BME280;23062;13.952;100.608;2023-08-30T16:49:41;1007.87;;;27.08;37.42
37170;BME280;23062;13.952;100.608;2023-08-30T16:53:54;1007.80;;;27.18;37.31
37170;BME280;23062;13.952;100.608;2023-08-30T17:02:25;1007.80;;;27.06;37.43
37170;BME280;23062;13.952;100.608;2023-08-30T17:06:39;1007.72;;;27.52;36.36
37170;BME280;23062;13.952;100.608;2023-08-30T17:10:56;1007.69;;;27.68;35.46
37170;BME280;23062;13.952;100.608;2023-08-30T17:15:10;1007.62;;;27.70;35.09
37170;BME280;23062;13.952;100.608;2023-08-30T17:19:30;1007.55;;;27.72;34.98
37170;BME280;23062;13.952;100.608;2023-08-30T17:23:40;1007.41;;;27.81;34.69
37170;BME280;23062;13.952;100.608;2023-08-30T17:27:55;1007.33;;;27.81;34.66
37170;BME280;23062;13.952;100.608;2023-08-30T17:32:09;1007.24;;;27.73;34.30
37170;BME280;23062;13.952;100.608;2023-08-30T17:36:25;1007.18;;;27.70;34.31
37170;BME280;23062;13.952;100.608;2023-08-30T17:40:39;1007.09;;;27.69;33.82
37170;BME280;23062;13.952;100.608;2023-08-30T17:44:55;1007.01;;;27.69;33.75
37170;BME280;23062;13.952;100.608;2023-08-30T17:49:10;1007.06;;;27.63;33.82
37170;BME280;23062;13.952;100.608;2023-08-30T17:53:25;1007.05;;;27.47;33.68
37170;BME280;23062;13.952;100.608;2023-08-30T17:57:41;1007.02;;;27.66;33.54
37170;BME280;23062;13.952;100.608;2023-08-30T18:01:55;1007.00;;;27.65;33.60
37170;BME280;23062;13.952;100.608;2023-08-30T18:06:10;1006.94;;;27.57;33.45
37170;BME280;23062;13.952;100.608;2023-08-30T18:10:25;1006.93;;;27.61;33.29
37170;BME280;23062;13.952;100.608;2023-08-30T18:14:40;1006.86;;;27.63;33.34
37170;BME280;23062;13.952;100.608;2023-08-30T18:18:55;1006.78;;;27.56;33.14
37170;BME280;23062;13.952;100.608;2023-08-30T18:23:09;1006.72;;;27.56;33.23
37170;BME280;23062;13.952;100.608;2023-08-30T18:27:25;1006.70;;;27.60;33.01
37170;BME280;23062;13.952;100.608;2023-08-30T18:31:40;1006.66;;;27.47;33.11
37170;BME280;23062;13.952;100.608;2023-08-30T18:35:54;1006.64;;;27.57;32.90
37170;BME280;23062;13.952;100.608;2023-08-30T18:40:10;1006.66;;;27.31;33.14
37170;BME280;23062;13.952;100.608;2023-08-30T18:44:25;1006.61;;;27.35;33.11
37170;BME280;23062;13.952;100.608;2023-08-30T18:48:40;1006.55;;;27.42;33.15
37170;BME280;23062;13.952;100.608;2023-08-30T18:52:55;1006.49;;;27.37;33.02
37170;BME280;23062;13.952;100.608;2023-08-30T18:57:12;1006.38;;;27.32;33.13
37170;BME280;23062;13.952;100.608;2023-08-30T19:01:25;1006.32;;;27.15;33.13
37170;BME280;23062;13.952;100.608;2023-08-30T19:05:40;1006.33;;;27.16;33.21
37170;BME280;23062;13.952;100.608;2023-08-30T19:09:54;1006.25;;;27.29;33.28
37170;BME280;23062;13.952;100.608;2023-08-30T19:14:09;1006.17;;;27.41;33.09
37170;BME280;23062;13.952;100.608;2023-08-30T19:18:25;1006.01;;;27.13;33.89
37170;BME280;23062;13.952;100.608;2023-08-30T19:22:40;1005.95;;;27.27;33.96
37170;BME280;23062;13.952;100.608;2023-08-30T19:26:55;1005.88;;;27.21;34.22
37170;BME280;23062;13.952;100.608;2023-08-30T19:31:10;1005.76;;;27.17;34.57
37170;BME280;23062;13.952;100.608;2023-08-30T19:35:25;1005.79;;;27.29;34.49
37170;BME280;23062;13.952;100.608;2023-08-30T19:39:40;1005.77;;;27.16;34.82
37170;BME280;23062;13.952;100.608;2023-08-30T19:43:55;1005.76;;;27.07;34.94
37170;BME280;23062;13.952;100.608;2023-08-30T19:48:27;1005.73;;;27.13;35.13
37170;BME280;23062;13.952;100.608;2023-08-30T19:52:25;1005.71;;;28.54;34.92
37170;BME280;23062;13.952;100.608;2023-08-30T19:56:40;1005.66;;;29.02;36.29
37170;BME280;23062;13.952;100.608;2023-08-30T20:01:01;1005.60;;;29.24;38.39
37170;BME280;23062;13.952;100.608;2023-08-30T20:05:10;1005.55;;;29.36;39.86
37170;BME280;23062;13.952;100.608;2023-08-30T20:09:25;1005.46;;;29.50;41.43
37170;BME280;23062;13.952;100.608;2023-08-30T20:13:39;1005.53;;;29.61;43.03
37170;BME280;23062;13.952;100.608;2023-08-30T20:17:55;1005.67;;;29.68;44.50
37170;BME280;23062;13.952;100.608;2023-08-30T20:22:10;1005.70;;;30.00;44.09
37170;BME280;23062;13.952;100.608;2023-08-30T20:26:25;1005.60;;;30.09;44.23
37170;BME280;23062;13.952;100.608;2023-08-30T20:30:51;1005.43;;;30.13;44.43
37170;BME280;23062;13.952;100.608;2023-08-30T20:34:55;1005.48;;;30.19;44.81
37170;BME280;23062;13.952;100.608;2023-08-30T20:39:09;1005.55;;;30.21;45.15
37170;BME280;23062;13.952;100.608;2023-08-30T20:43:24;1005.48;;;30.21;45.57
37170;BME280;23062;13.952;100.608;2023-08-30T20:47:39;1005.48;;;30.26;45.87
37170;BME280;23062;13.952;100.608;2023-08-30T20:51:55;1005.62;;;30.28;46.24
37170;BME280;23062;13.952;100.608;2023-08-30T20:56:11;1005.59;;;30.29;46.53
37170;BME280;23062;13.952;100.608;2023-08-30T21:00:25;1005.62;;;30.29;46.88
37170;BME280;23062;13.952;100.608;2023-08-30T21:04:40;1005.70;;;30.34;47.16
37170;BME280;23062;13.952;100.608;2023-08-30T21:08:54;1005.75;;;30.34;47.38
37170;BME280;23062;13.952;100.608;2023-08-30T21:13:09;1005.72;;;30.37;47.87
37170;BME280;23062;13.952;100.608;2023-08-30T21:17:25;1005.75;;;30.38;48.39
37170;BME280;23062;13.952;100.608;2023-08-30T21:21:40;1005.76;;;30.38;48.66
37170;BME280;23062;13.952;100.608;2023-08-30T21:25:55;1005.77;;;30.38;49.05
37170;BME280;23062;13.952;100.608;2023-08-30T21:30:10;1005.90;;;30.39;49.57
37170;BME280;23062;13.952;100.608;2023-08-30T21:34:26;1006.01;;;30.62;49.13
37170;BME280;23062;13.952;100.608;2023-08-30T21:38:40;1005.93;;;30.85;48.62
37170;BME280;23062;13.952;100.608;2023-08-30T21:42:55;1005.86;;;30.96;48.69
37170;BME280;23062;13.952;100.608;2023-08-30T21:47:10;1005.91;;;30.99;48.81
37170;BME280;23062;13.952;100.608;2023-08-30T21:51:25;1005.85;;;31.02;48.79
37170;BME280;23062;13.952;100.608;2023-08-30T21:55:39;1005.87;;;31.02;48.81
37170;BME280;23062;13.952;100.608;2023-08-30T21:59:55;1005.87;;;31.01;48.94
37170;BME280;23062;13.952;100.608;2023-08-30T22:04:10;1005.82;;;31.00;49.30
37170;BME280;23062;13.952;100.608;2023-08-30T22:08:25;1005.96;;;31.01;49.62
37170;BME280;23062;13.952;100.608;2023-08-30T22:12:41;1005.93;;;30.99;49.73
37170;BME280;23062;13.952;100.608;2023-08-30T22:16:55;1005.92;;;30.99;49.75
37170;BME280;23062;13.952;100.608;2023-08-30T22:21:10;1005.95;;;31.00;49.99